sensor_id;sensor_type;location;lat;lon;timestamp;pressure;altitude;pressure_sealevel;temperature;humidity
59103;BME280;43999;51.660;5.616;2023-05-09T00:28:36;101549.19;;;15.37;100.00
59103;BME280;43999;51.660;5.616;2023-05-09T00:32:03;101548.31;;;15.36;100.00
59103;BME280;43999;51.660;5.616;2023-05-09T00:35:53;101541.47;;;15.34;100.00
59103;BME280;43999;51.660;5.616;2023-05-09T00:39:18;101543.03;;;15.36;100.00
59103;BME280;43999;51.660;5.616;2023-05-09T00:43:17;101547.03;;;15.29;100.00
59103;BME280;43999;51.660;5.616;2023-05-09T00:46:49;101535.69;;;15.27;100.00
59103;BME280;43999;51.660;5.616;2023-05-09T01:42:12;101457.53;;;14.83;100.00
59103;BME280;43999;51.660;5.616;2023-05-09T01:49:30;101464.66;;;14.81;100.00
59103;BME280;43999;51.660;5.616;2023-05-09T01:53:05;101457.03;;;14.76;100.00
59103;BME280;43999;51.660;5.616;2023-05-09T01:56:24;101457.22;;;14.73;100.00
59103;BME280;43999;51.660;5.616;2023-05-09T01:59:42;101443.19;;;14.73;100.00
59103;BME280;43999;51.660;5.616;2023-05-09T02:03:01;101438.94;;;14.70;100.00
59103;BME280;43999;51.660;5.616;2023-05-09T02:06:09;101438.75;;;14.73;100.00
59103;BME280;43999;51.660;5.616;2023-05-09T02:10:02;101442.06;;;14.77;100.00
59103;BME280;43999;51.660;5.616;2023-05-09T02:13:46;101446.28;;;14.79;100.00
59103;BME280;43999;51.660;5.616;2023-05-09T02:16:46;101443.75;;;14.78;100.00
59103;BME280;43999;51.660;5.616;2023-05-09T02:20:40;101444.59;;;14.78;100.00
59103;BME280;43999;51.660;5.616;2023-05-09T02:24:22;101438.66;;;14.75;100.00
59103;BME280;43999;51.660;5.616;2023-05-09T02:27:57;101432.53;;;14.74;100.00
59103;BME280;43999;51.660;5.616;2023-05-09T02:32:03;101432.72;;;14.71;100.00
59103;BME280;43999;51.660;5.616;2023-05-09T02:36:38;101427.94;;;14.63;100.00
59103;BME280;43999;51.660;5.616;2023-05-09T02:40:37;101425.72;;;14.56;100.00
59103;BME280;43999;51.660;5.616;2023-05-09T02:48:23;101421.56;;;14.51;100.00
59103;BME280;43999;51.660;5.616;2023-05-09T02:52:27;101428.19;;;14.59;100.00
59103;BME280;43999;51.660;5.616;2023-05-09T02:57:03;101433.66;;;14.56;100.00
59103;BME280;43999;51.660;5.616;2023-05-09T03:06:09;101414.53;;;14.52;100.00
59103;BME280;43999;51.660;5.616;2023-05-09T03:10:33;101413.75;;;14.50;100.00
59103;BME280;43999;51.660;5.616;2023-05-09T03:14:17;101398.16;;;14.47;100.00
59103;BME280;43999;51.660;5.616;2023-05-09T03:22:35;101392.94;;;14.31;100.00
59103;BME280;43999;51.660;5.616;2023-05-09T03:27:07;101388.72;;;14.28;100.00
59103;BME280;43999;51.660;5.616;2023-05-09T03:30:29;101388.06;;;14.25;100.00
59103;BME280;43999;51.660;5.616;2023-05-09T03:46:33;101385.78;;;14.19;100.00
59103;BME280;43999;51.660;5.616;2023-05-09T03:51:24;101375.53;;;14.14;100.00
59103;BME280;43999;51.660;5.616;2023-05-09T04:18:08;101356.78;;;14.04;100.00
59103;BME280;43999;51.660;5.616;2023-05-09T04:30:35;101329.88;;;13.99;100.00
59103;BME280;43999;51.660;5.616;2023-05-09T04:39:36;101330.91;;;13.96;100.00
59103;BME280;43999;51.660;5.616;2023-05-09T04:43:16;101327.53;;;13.94;100.00
59103;BME280;43999;51.660;5.616;2023-05-09T04:47:28;101344.00;;;13.98;100.00
59103;BME280;43999;51.660;5.616;2023-05-09T04:51:24;101327.34;;;13.97;100.00
59103;BME280;43999;51.660;5.616;2023-05-09T06:00:41;101245.38;;;15.13;100.00
59103;BME280;43999;51.660;5.616;2023-05-09T06:03:48;101245.78;;;15.19;100.00
59103;BME280;43999;51.660;5.616;2023-05-09T06:07:00;101236.53;;;15.27;100.00
59103;BME280;43999;51.660;5.616;2023-05-09T06:09:59;101234.72;;;15.27;100.00
59103;BME280;43999;51.660;5.616;2023-05-09T06:12:45;101238.22;;;15.40;100.00
59103;BME280;43999;51.660;5.616;2023-05-09T06:15:46;101227.03;;;15.50;100.00
59103;BME280;43999;51.660;5.616;2023-05-09T06:18:20;101230.75;;;15.60;100.00
59103;BME280;43999;51.660;5.616;2023-05-09T06:20:54;101212.66;;;15.67;100.00
59103;BME280;43999;51.660;5.616;2023-05-09T06:23:33;101215.13;;;15.83;100.00
59103;BME280;43999;51.660;5.616;2023-05-09T06:26:12;101214.34;;;15.93;100.00
59103;BME280;43999;51.660;5.616;2023-05-09T06:28:40;101209.03;;;16.06;100.00
59103;BME280;43999;51.660;5.616;2023-05-09T06:31:10;101208.72;;;16.11;100.00
59103;BME280;43999;51.660;5.616;2023-05-09T06:33:40;101215.03;;;16.21;100.00
59103;BME280;43999;51.660;5.616;2023-05-09T06:36:59;101218.19;;;16.26;100.00
59103;BME280;43999;51.660;5.616;2023-05-09T06:39:29;101213.53;;;16.30;100.00
59103;BME280;43999;51.660;5.616;2023-05-09T06:42:22;101211.72;;;16.30;100.00
59103;BME280;43999;51.660;5.616;2023-05-09T06:45:02;101212.56;;;16.31;100.00
59103;BME280;43999;51.660;5.616;2023-05-09T06:48:01;101207.06;;;16.34;100.00
59103;BME280;43999;51.660;5.616;2023-05-09T06:50:43;101198.63;;;16.29;100.00
59103;BME280;43999;51.660;5.616;2023-05-09T07:05:11;101184.69;;;16.27;100.00
59103;BME280;43999;51.660;5.616;2023-05-09T07:07:39;101184.56;;;16.28;100.00
59103;BME280;43999;51.660;5.616;2023-05-09T07:10:08;101181.16;;;16.26;100.00
59103;BME280;43999;51.660;5.616;2023-05-09T07:12:39;101179.78;;;16.34;100.00
59103;BME280;43999;51.660;5.616;2023-05-09T07:15:16;101184.72;;;16.38;100.00
59103;BME280;43999;51.660;5.616;2023-05-09T07:18:03;101171.06;;;16.44;100.00
59103;BME280;43999;51.660;5.616;2023-05-09T07:20:31;101175.78;;;16.52;100.00
59103;BME280;43999;51.660;5.616;2023-05-09T07:22:58;101170.88;;;16.59;100.00
59103;BME280;43999;51.660;5.616;2023-05-09T07:25:26;101171.00;;;16.57;100.00
59103;BME280;43999;51.660;5.616;2023-05-09T07:27:53;101161.38;;;16.56;100.00
59103;BME280;43999;51.660;5.616;2023-05-09T07:30:21;101162.00;;;16.60;100.00
59103;BME280;43999;51.660;5.616;2023-05-09T07:32:48;101159.00;;;16.64;100.00
59103;BME280;43999;51.660;5.616;2023-05-09T07:35:16;101149.25;;;16.65;100.00
59103;BME280;43999;51.660;5.616;2023-05-09T07:37:45;101158.06;;;16.65;100.00
59103;BME280;43999;51.660;5.616;2023-05-09T07:40:12;101157.66;;;16.59;100.00
59103;BME280;43999;51.660;5.616;2023-05-09T07:42:48;101154.28;;;16.57;100.00
59103;BME280;43999;51.660;5.616;2023-05-09T07:45:17;101148.16;;;16.56;100.00
59103;BME280;43999;51.660;5.616;2023-05-09T07:47:48;101150.91;;;16.55;100.00
59103;BME280;43999;51.660;5.616;2023-05-09T07:50:17;101145.97;;;16.50;100.00
59103;BME280;43999;51.660;5.616;2023-05-09T07:52:45;101147.03;;;16.47;100.00
59103;BME280;43999;51.660;5.616;2023-05-09T07:55:13;101145.34;;;16.46;100.00
59103;BME280;43999;51.660;5.616;2023-05-09T07:57:42;101134.63;;;16.48;100.00
59103;BME280;43999;51.660;5.616;2023-05-09T08:00:10;101143.56;;;16.47;100.00
59103;BME280;43999;51.660;5.616;2023-05-09T08:02:42;101138.59;;;16.42;100.00
59103;BME280;43999;51.660;5.616;2023-05-09T08:05:09;101134.47;;;16.38;100.00
59103;BME280;43999;51.660;5.616;2023-05-09T08:07:40;101131.22;;;16.35;100.00
59103;BME280;43999;51.660;5.616;2023-05-09T08:10:10;101122.88;;;16.28;100.00
59103;BME280;43999;51.660;5.616;2023-05-09T08:12:38;101125.53;;;16.28;100.00
59103;BME280;43999;51.660;5.616;2023-05-09T08:15:08;101119.53;;;16.26;100.00
59103;BME280;43999;51.660;5.616;2023-05-09T08:17:37;101125.88;;;16.23;100.00
59103;BME280;43999;51.660;5.616;2023-05-09T08:20:06;101119.75;;;16.23;100.00
59103;BME280;43999;51.660;5.616;2023-05-09T08:22:38;101117.94;;;16.23;100.00
59103;BME280;43999;51.660;5.616;2023-05-09T08:25:08;101113.28;;;16.27;100.00
59103;BME280;43999;51.660;5.616;2023-05-09T08:27:35;101098.03;;;16.30;100.00
59103;BME280;43999;51.660;5.616;2023-05-09T08:30:04;101093.81;;;16.28;100.00
59103;BME280;43999;51.660;5.616;2023-05-09T08:32:32;101103.81;;;16.36;100.00
59103;BME280;43999;51.660;5.616;2023-05-09T08:34:59;101105.63;;;16.35;100.00
59103;BME280;43999;51.660;5.616;2023-05-09T08:37:29;101101.06;;;16.37;100.00
59103;BME280;43999;51.660;5.616;2023-05-09T08:39:57;101100.94;;;16.39;100.00
59103;BME280;43999;51.660;5.616;2023-05-09T08:42:26;101105.16;;;16.41;100.00
59103;BME280;43999;51.660;5.616;2023-05-09T08:44:55;101093.88;;;16.39;100.00
59103;BME280;43999;51.660;5.616;2023-05-09T08:47:23;101090.25;;;16.40;100.00
59103;BME280;43999;51.660;5.616;2023-05-09T08:49:53;101089.75;;;16.35;100.00
59103;BME280;43999;51.660;5.616;2023-05-09T08:52:21;101086.63;;;16.30;100.00
59103;BME280;43999;51.660;5.616;2023-05-09T08:54:49;101090.81;;;16.33;100.00
59103;BME280;43999;51.660;5.616;2023-05-09T08:57:17;101088.63;;;16.26;100.00
59103;BME280;43999;51.660;5.616;2023-05-09T08:59:48;101088.75;;;16.25;100.00
59103;BME280;43999;51.660;5.616;2023-05-09T09:02:19;101089.97;;;16.08;100.00
59103;BME280;43999;51.660;5.616;2023-05-09T09:04:47;101086.25;;;15.86;100.00
59103;BME280;43999;51.660;5.616;2023-05-09T09:07:15;101087.69;;;15.66;100.00
59103;BME280;43999;51.660;5.616;2023-05-09T09:09:46;101083.16;;;15.55;100.00
59103;BME280;43999;51.660;5.616;2023-05-09T09:12:16;101082.00;;;15.47;100.00
59103;BME280;43999;51.660;5.616;2023-05-09T09:14:49;101078.22;;;15.38;100.00
59103;BME280;43999;51.660;5.616;2023-05-09T09:17:25;101065.75;;;15.27;100.00
59103;BME280;43999;51.660;5.616;2023-05-09T09:20:02;101065.75;;;15.27;100.00
59103;BME280;43999;51.660;5.616;2023-05-09T09:22:34;101062.59;;;15.22;100.00
59103;BME280;43999;51.660;5.616;2023-05-09T09:25:04;101069.81;;;15.20;100.00
59103;BME280;43999;51.660;5.616;2023-05-09T09:27:31;101060.19;;;15.19;100.00
59103;BME280;43999;51.660;5.616;2023-05-09T09:30:11;101066.09;;;15.22;100.00
59103;BME280;43999;51.660;5.616;2023-05-09T09:32:42;101052.16;;;15.20;100.00
59103;BME280;43999;51.660;5.616;2023-05-09T09:35:11;101054.91;;;15.19;100.00
59103;BME280;43999;51.660;5.616;2023-05-09T09:37:41;101057.34;;;15.22;100.00
59103;BME280;43999;51.660;5.616;2023-05-09T09:40:12;101053.09;;;15.19;100.00
59103;BME280;43999;51.660;5.616;2023-05-09T09:42:46;101054.06;;;15.18;100.00
59103;BME280;43999;51.660;5.616;2023-05-09T09:45:16;101050.69;;;15.16;100.00
59103;BME280;43999;51.660;5.616;2023-05-09T09:47:47;101055.22;;;15.14;100.00
59103;BME280;43999;51.660;5.616;2023-05-09T09:50:19;101054.59;;;15.11;100.00
59103;BME280;43999;51.660;5.616;2023-05-09T09:52:54;101049.53;;;15.08;100.00
59103;BME280;43999;51.660;5.616;2023-05-09T09:55:25;101049.00;;;15.02;100.00
59103;BME280;43999;51.660;5.616;2023-05-09T09:57:54;101054.69;;;14.96;100.00
59103;BME280;43999;51.660;5.616;2023-05-09T10:00:26;101047.97;;;14.92;100.00
59103;BME280;43999;51.660;5.616;2023-05-09T10:02:56;101043.94;;;14.86;100.00
59103;BME280;43999;51.660;5.616;2023-05-09T10:05:29;101041.00;;;14.78;100.00
59103;BME280;43999;51.660;5.616;2023-05-09T10:08:03;101037.28;;;14.68;100.00
59103;BME280;43999;51.660;5.616;2023-05-09T10:10:34;101041.72;;;14.67;100.00
59103;BME280;43999;51.660;5.616;2023-05-09T10:13:09;101032.28;;;14.50;100.00
59103;BME280;43999;51.660;5.616;2023-05-09T10:15:39;101037.66;;;14.36;100.00
59103;BME280;43999;51.660;5.616;2023-05-09T10:18:38;101033.28;;;14.22;100.00
59103;BME280;43999;51.660;5.616;2023-05-09T10:21:10;101034.19;;;14.08;100.00
59103;BME280;43999;51.660;5.616;2023-05-09T10:23:44;101020.56;;;14.02;100.00
59103;BME280;43999;51.660;5.616;2023-05-09T10:26:28;101022.66;;;13.96;100.00
59103;BME280;43999;51.660;5.616;2023-05-09T10:29:08;101029.53;;;13.99;100.00
59103;BME280;43999;51.660;5.616;2023-05-09T10:31:38;101021.63;;;13.99;100.00
59103;BME280;43999;51.660;5.616;2023-05-09T10:34:09;101021.94;;;13.94;100.00
59103;BME280;43999;51.660;5.616;2023-05-09T10:36:38;101014.97;;;13.93;100.00
59103;BME280;43999;51.660;5.616;2023-05-09T10:39:08;101012.13;;;13.96;100.00
59103;BME280;43999;51.660;5.616;2023-05-09T10:41:35;101015.59;;;13.97;100.00
59103;BME280;43999;51.660;5.616;2023-05-09T10:44:05;101008.56;;;13.97;100.00
59103;BME280;43999;51.660;5.616;2023-05-09T10:46:35;101004.22;;;13.96;100.00
59103;BME280;43999;51.660;5.616;2023-05-09T10:49:09;101001.28;;;14.01;100.00
59103;BME280;43999;51.660;5.616;2023-05-09T10:51:37;100999.47;;;14.02;100.00
59103;BME280;43999;51.660;5.616;2023-05-09T10:54:13;100994.13;;;14.03;100.00
59103;BME280;43999;51.660;5.616;2023-05-09T10:56:53;100989.31;;;14.10;100.00
59103;BME280;43999;51.660;5.616;2023-05-09T10:59:39;100994.56;;;14.10;100.00
59103;BME280;43999;51.660;5.616;2023-05-09T11:02:13;100992.13;;;14.07;100.00
59103;BME280;43999;51.660;5.616;2023-05-09T11:04:45;100983.47;;;14.05;100.00
59103;BME280;43999;51.660;5.616;2023-05-09T11:07:25;100982.00;;;14.01;100.00
59103;BME280;43999;51.660;5.616;2023-05-09T11:10:15;100975.03;;;13.99;100.00
59103;BME280;43999;51.660;5.616;2023-05-09T11:12:57;100980.94;;;14.03;100.00
59103;BME280;43999;51.660;5.616;2023-05-09T11:15:26;100976.44;;;14.05;100.00
59103;BME280;43999;51.660;5.616;2023-05-09T11:18:05;100971.25;;;14.04;100.00
59103;BME280;43999;51.660;5.616;2023-05-09T11:20:35;100967.88;;;14.02;100.00
59103;BME280;43999;51.660;5.616;2023-05-09T11:23:09;100962.81;;;13.98;100.00
59103;BME280;43999;51.660;5.616;2023-05-09T11:25:48;100961.13;;;13.97;100.00
59103;BME280;43999;51.660;5.616;2023-05-09T11:28:27;100960.56;;;13.92;100.00
59103;BME280;43999;51.660;5.616;2023-05-09T11:31:16;100950.13;;;13.91;100.00
59103;BME280;43999;51.660;5.616;2023-05-09T11:33:48;100951.00;;;13.91;100.00
59103;BME280;43999;51.660;5.616;2023-05-09T11:36:31;100960.69;;;13.91;100.00
59103;BME280;43999;51.660;5.616;2023-05-09T11:39:08;100948.66;;;13.87;100.00
59103;BME280;43999;51.660;5.616;2023-05-09T11:41:56;100950.53;;;13.85;100.00
59103;BME280;43999;51.660;5.616;2023-05-09T11:44:24;100938.34;;;13.84;100.00
59103;BME280;43999;51.660;5.616;2023-05-09T11:46:54;100943.72;;;13.82;100.00
59103;BME280;43999;51.660;5.616;2023-05-09T11:49:23;100946.34;;;13.82;100.00
59103;BME280;43999;51.660;5.616;2023-05-09T11:51:50;100937.56;;;13.81;100.00
59103;BME280;43999;51.660;5.616;2023-05-09T11:54:18;100935.81;;;13.82;100.00
59103;BME280;43999;51.660;5.616;2023-05-09T11:56:45;100929.47;;;13.85;100.00
59103;BME280;43999;51.660;5.616;2023-05-09T11:59:13;100924.97;;;13.87;100.00
59103;BME280;43999;51.660;5.616;2023-05-09T12:01:41;100921.56;;;13.85;100.00
59103;BME280;43999;51.660;5.616;2023-05-09T12:04:09;100919.59;;;13.88;100.00
59103;BME280;43999;51.660;5.616;2023-05-09T12:06:36;100912.63;;;13.87;100.00
59103;BME280;43999;51.660;5.616;2023-05-09T12:09:15;100917.78;;;13.89;100.00
59103;BME280;43999;51.660;5.616;2023-05-09T12:11:48;100909.25;;;13.85;100.00
59103;BME280;43999;51.660;5.616;2023-05-09T12:14:30;100910.94;;;13.86;100.00
59103;BME280;43999;51.660;5.616;2023-05-09T12:16:59;100905.66;;;13.86;100.00
59103;BME280;43999;51.660;5.616;2023-05-09T12:19:27;100908.84;;;13.91;100.00
59103;BME280;43999;51.660;5.616;2023-05-09T12:22:02;100907.06;;;13.92;100.00
59103;BME280;43999;51.660;5.616;2023-05-09T12:24:35;100901.06;;;13.90;100.00
59103;BME280;43999;51.660;5.616;2023-05-09T12:27:04;100898.31;;;13.91;100.00
59103;BME280;43999;51.660;5.616;2023-05-09T12:29:34;100903.03;;;13.86;100.00
59103;BME280;43999;51.660;5.616;2023-05-09T12:32:03;100889.03;;;13.86;100.00
59103;BME280;43999;51.660;5.616;2023-05-09T12:34:31;100890.63;;;13.88;100.00
59103;BME280;43999;51.660;5.616;2023-05-09T12:36:59;100889.44;;;13.92;100.00
59103;BME280;43999;51.660;5.616;2023-05-09T12:39:29;100892.84;;;13.94;100.00
59103;BME280;43999;51.660;5.616;2023-05-09T12:41:56;100884.94;;;13.94;100.00
59103;BME280;43999;51.660;5.616;2023-05-09T12:44:28;100883.34;;;13.92;100.00
59103;BME280;43999;51.660;5.616;2023-05-09T12:47:03;100883.44;;;13.90;100.00
59103;BME280;43999;51.660;5.616;2023-05-09T12:49:31;100891.03;;;13.95;100.00
59103;BME280;43999;51.660;5.616;2023-05-09T12:51:59;100880.81;;;13.90;100.00
59103;BME280;43999;51.660;5.616;2023-05-09T12:54:30;100874.81;;;13.88;100.00
59103;BME280;43999;51.660;5.616;2023-05-09T12:56:58;100878.59;;;13.84;100.00
59103;BME280;43999;51.660;5.616;2023-05-09T12:59:27;100882.16;;;13.83;100.00
59103;BME280;43999;51.660;5.616;2023-05-09T13:01:56;100877.97;;;13.80;100.00
59103;BME280;43999;51.660;5.616;2023-05-09T13:04:26;100879.84;;;13.78;100.00
59103;BME280;43999;51.660;5.616;2023-05-09T13:07:06;100880.34;;;13.71;100.00
59103;BME280;43999;51.660;5.616;2023-05-09T13:09:36;100871.19;;;13.63;100.00
59103;BME280;43999;51.660;5.616;2023-05-09T13:12:24;100869.78;;;13.58;100.00
59103;BME280;43999;51.660;5.616;2023-05-09T13:14:52;100861.91;;;13.58;100.00
59103;BME280;43999;51.660;5.616;2023-05-09T13:17:20;100863.50;;;13.60;100.00
59103;BME280;43999;51.660;5.616;2023-05-09T13:19:55;100858.44;;;13.57;100.00
59103;BME280;43999;51.660;5.616;2023-05-09T13:22:22;100853.47;;;13.53;100.00
59103;BME280;43999;51.660;5.616;2023-05-09T13:24:50;100853.47;;;13.53;100.00
59103;BME280;43999;51.660;5.616;2023-05-09T13:27:18;100847.22;;;13.54;100.00
59103;BME280;43999;51.660;5.616;2023-05-09T13:29:45;100839.66;;;13.49;100.00
59103;BME280;43999;51.660;5.616;2023-05-09T13:32:13;100839.66;;;13.49;100.00
59103;BME280;43999;51.660;5.616;2023-05-09T13:34:42;100838.50;;;13.53;100.00
59103;BME280;43999;51.660;5.616;2023-05-09T13:37:09;100840.94;;;13.56;100.00
59103;BME280;43999;51.660;5.616;2023-05-09T13:39:36;100840.94;;;13.56;100.00
59103;BME280;43999;51.660;5.616;2023-05-09T13:42:05;100830.50;;;13.55;100.00
59103;BME280;43999;51.660;5.616;2023-05-09T13:44:34;100830.72;;;13.52;100.00
59103;BME280;43999;51.660;5.616;2023-05-09T13:47:02;100829.78;;;13.53;100.00
59103;BME280;43999;51.660;5.616;2023-05-09T13:49:29;100830.72;;;13.52;100.00
59103;BME280;43999;51.660;5.616;2023-05-09T13:52:01;100829.97;;;13.50;100.00
59103;BME280;43999;51.660;5.616;2023-05-09T13:54:28;100823.00;;;13.49;100.00
59103;BME280;43999;51.660;5.616;2023-05-09T13:57:03;100821.22;;;13.49;100.00
59103;BME280;43999;51.660;5.616;2023-05-09T13:59:31;100817.84;;;13.47;100.00
59103;BME280;43999;51.660;5.616;2023-05-09T14:02:00;100825.44;;;13.52;100.00
59103;BME280;43999;51.660;5.616;2023-05-09T14:04:29;100823.75;;;13.51;100.00
59103;BME280;43999;51.660;5.616;2023-05-09T14:07:00;100814.72;;;13.55;100.00
59103;BME280;43999;51.660;5.616;2023-05-09T14:09:30;100811.03;;;13.57;100.00
59103;BME280;43999;51.660;5.616;2023-05-09T14:12:04;100812.59;;;13.60;100.00
59103;BME280;43999;51.660;5.616;2023-05-09T14:14:35;100811.78;;;13.59;100.00
59103;BME280;43999;51.660;5.616;2023-05-09T14:17:03;100800.41;;;13.59;100.00
59103;BME280;43999;51.660;5.616;2023-05-09T14:19:31;100802.63;;;13.65;100.00
59103;BME280;43999;51.660;5.616;2023-05-09T14:21:58;100796.94;;;13.71;100.00
59103;BME280;43999;51.660;5.616;2023-05-09T14:24:26;100796.84;;;13.73;100.00
59103;BME280;43999;51.660;5.616;2023-05-09T14:26:56;100791.47;;;13.74;100.00
59103;BME280;43999;51.660;5.616;2023-05-09T14:29:26;100787.97;;;13.74;100.00
59103;BME280;43999;51.660;5.616;2023-05-09T14:31:54;100793.34;;;13.72;100.00
59103;BME280;43999;51.660;5.616;2023-05-09T14:34:22;100788.06;;;13.72;100.00
59103;BME280;43999;51.660;5.616;2023-05-09T14:36:50;100785.34;;;13.74;100.00
59103;BME280;43999;51.660;5.616;2023-05-09T14:39:17;100793.25;;;13.74;100.00
59103;BME280;43999;51.660;5.616;2023-05-09T14:41:48;100780.06;;;13.74;100.00
59103;BME280;43999;51.660;5.616;2023-05-09T14:44:16;100778.50;;;13.71;100.00
59103;BME280;43999;51.660;5.616;2023-05-09T14:46:43;100777.44;;;13.74;100.00
59103;BME280;43999;51.660;5.616;2023-05-09T14:49:11;100772.28;;;13.72;100.00
59103;BME280;43999;51.660;5.616;2023-05-09T14:51:39;100768.81;;;13.72;100.00
59103;BME280;43999;51.660;5.616;2023-05-09T14:54:08;100763.66;;;13.70;100.00
59103;BME280;43999;51.660;5.616;2023-05-09T14:56:38;100755.66;;;13.72;100.00
59103;BME280;43999;51.660;5.616;2023-05-09T14:59:05;100763.75;;;13.69;100.00
59103;BME280;43999;51.660;5.616;2023-05-09T15:01:33;100765.25;;;13.73;100.00
59103;BME280;43999;51.660;5.616;2023-05-09T15:04:00;100751.22;;;13.72;100.00
59103;BME280;43999;51.660;5.616;2023-05-09T15:06:28;100754.59;;;13.74;100.00
59103;BME280;43999;51.660;5.616;2023-05-09T15:08:56;100747.31;;;13.78;100.00
59103;BME280;43999;51.660;5.616;2023-05-09T15:11:23;100732.47;;;13.77;100.00
59103;BME280;43999;51.660;5.616;2023-05-09T15:13:55;100745.31;;;13.81;100.00
59103;BME280;43999;51.660;5.616;2023-05-09T15:16:22;100741.75;;;13.83;100.00
59103;BME280;43999;51.660;5.616;2023-05-09T15:18:49;100739.22;;;13.81;100.00
59103;BME280;43999;51.660;5.616;2023-05-09T15:21:17;100736.78;;;13.78;100.00
59103;BME280;43999;51.660;5.616;2023-05-09T15:23:52;100730.16;;;13.72;100.00
59103;BME280;43999;51.660;5.616;2023-05-09T15:26:25;100731.00;;;13.73;100.00
59103;BME280;43999;51.660;5.616;2023-05-09T15:29:03;100728.59;;;13.70;100.00
59103;BME280;43999;51.660;5.616;2023-05-09T15:31:49;100731.31;;;13.68;100.00
59103;BME280;43999;51.660;5.616;2023-05-09T15:34:17;100732.78;;;13.72;100.00
59103;BME280;43999;51.660;5.616;2023-05-09T15:36:44;100731.94;;;13.72;100.00
59103;BME280;43999;51.660;5.616;2023-05-09T15:39:20;100732.06;;;13.70;100.00
59103;BME280;43999;51.660;5.616;2023-05-09T15:41:47;100731.22;;;13.70;100.00
59103;BME280;43999;51.660;5.616;2023-05-09T15:44:18;100729.22;;;13.73;100.00
59103;BME280;43999;51.660;5.616;2023-05-09T15:46:52;100723.00;;;13.74;100.00
59103;BME280;43999;51.660;5.616;2023-05-09T15:49:22;100722.91;;;13.76;100.00
59103;BME280;43999;51.660;5.616;2023-05-09T15:51:50;100721.31;;;13.73;100.00
59103;BME280;43999;51.660;5.616;2023-05-09T15:54:17;100718.69;;;13.73;100.00
59103;BME280;43999;51.660;5.616;2023-05-09T15:56:48;100715.94;;;13.75;100.00
59103;BME280;43999;51.660;5.616;2023-05-09T15:59:23;100710.66;;;13.75;100.00
59103;BME280;43999;51.660;5.616;2023-05-09T16:01:54;100710.66;;;13.75;100.00
59103;BME280;43999;51.660;5.616;2023-05-09T16:04:21;100703.72;;;13.74;100.00
59103;BME280;43999;51.660;5.616;2023-05-09T16:06:50;100705.50;;;13.73;100.00
59103;BME280;43999;51.660;5.616;2023-05-09T16:09:20;100692.66;;;13.69;100.00
59103;BME280;43999;51.660;5.616;2023-05-09T16:11:47;100697.00;;;13.70;100.00
59103;BME280;43999;51.660;5.616;2023-05-09T16:14:16;100688.34;;;13.68;100.00
59103;BME280;43999;51.660;5.616;2023-05-09T16:16:45;100692.56;;;13.70;100.00
59103;BME280;43999;51.660;5.616;2023-05-09T16:19:20;100690.53;;;13.74;100.00
59103;BME280;43999;51.660;5.616;2023-05-09T16:21:49;100692.22;;;13.75;100.00
59103;BME280;43999;51.660;5.616;2023-05-09T16:24:22;100689.81;;;13.72;100.00
59103;BME280;43999;51.660;5.616;2023-05-09T16:26:49;100680.97;;;13.73;100.00
59103;BME280;43999;51.660;5.616;2023-05-09T16:29:19;100676.75;;;13.70;100.00
59103;BME280;43999;51.660;5.616;2023-05-09T16:31:53;100676.88;;;13.69;100.00
59103;BME280;43999;51.660;5.616;2023-05-09T16:34:29;100671.38;;;13.72;100.00
59103;BME280;43999;51.660;5.616;2023-05-09T16:36:59;100671.38;;;13.72;100.00
59103;BME280;43999;51.660;5.616;2023-05-09T16:39:32;100678.34;;;13.73;100.00
59103;BME280;43999;51.660;5.616;2023-05-09T16:42:31;100679.28;;;13.72;100.00
59103;BME280;43999;51.660;5.616;2023-05-09T16:44:59;100667.91;;;13.71;100.00
59103;BME280;43999;51.660;5.616;2023-05-09T16:47:27;100656.41;;;13.72;100.00
59103;BME280;43999;51.660;5.616;2023-05-09T16:50:07;100663.16;;;13.76;100.00
59103;BME280;43999;51.660;5.616;2023-05-09T16:52:56;100664.75;;;13.79;100.00
59103;BME280;43999;51.660;5.616;2023-05-09T16:55:24;100654.44;;;13.76;100.00
59103;BME280;43999;51.660;5.616;2023-05-09T16:57:53;100644.00;;;13.74;100.00
59103;BME280;43999;51.660;5.616;2023-05-09T17:00:23;100654.31;;;13.77;100.00
59103;BME280;43999;51.660;5.616;2023-05-09T17:02:50;100656.09;;;13.77;100.00
59103;BME280;43999;51.660;5.616;2023-05-09T17:05:18;100650.09;;;13.75;100.00
59103;BME280;43999;51.660;5.616;2023-05-09T17:07:45;100650.22;;;13.73;100.00
59103;BME280;43999;51.660;5.616;2023-05-09T17:10:13;100646.84;;;13.71;100.00
59103;BME280;43999;51.660;5.616;2023-05-09T17:12:40;100649.59;;;13.70;100.00
59103;BME280;43999;51.660;5.616;2023-05-09T17:15:08;100648.00;;;13.67;100.00
59103;BME280;43999;51.660;5.616;2023-05-09T17:17:47;100637.91;;;13.61;100.00
59103;BME280;43999;51.660;5.616;2023-05-09T17:20:15;100647.59;;;13.60;100.00
59103;BME280;43999;51.660;5.616;2023-05-09T17:22:43;100638.66;;;13.50;100.00
59103;BME280;43999;51.660;5.616;2023-05-09T17:25:10;100651.72;;;13.52;100.00
59103;BME280;43999;51.660;5.616;2023-05-09T17:27:39;100644.84;;;13.49;100.00
59103;BME280;43999;51.660;5.616;2023-05-09T17:30:12;100640.44;;;13.50;100.00
59103;BME280;43999;51.660;5.616;2023-05-09T17:32:49;100652.84;;;13.48;100.00
59103;BME280;43999;51.660;5.616;2023-05-09T17:35:23;100657.41;;;13.45;100.00
59103;BME280;43999;51.660;5.616;2023-05-09T17:37:55;100647.91;;;13.43;100.00